Berwick, Ohio
Current Conditions -  °F | °C
As of 5:53 PM on Tuesday 27 Jan 2015 (Local Time) from KFDY Reporting Station
Clear Clear  
Wind Chill: 11°   Ceiling: Unl
Heat Index: 19°   Visibility: 10mi
Dew Point: 10°   Wind: 6mph
Humidity: 68%   Direction: 290°WNW
Pressure: 30.15"   Gusts: NA
Location:  41.0558°N, 83.3049°W
Report Text: KFDY 272253Z AUTO 29005KT 10SM CLR M07/M12 A3015 RMK AO2 SLP222 T10721122
Loading
Personal Weather Stations






























Interactive Weather Map New forecast layout! Learn more

10-Day Weather Forecast

Advertisements
Track Severe Weather on mobile